createdAt,value
2017-11-21T00:00:01.873Z,3.50
2017-11-21T00:02:30.102Z,1.97
2017-11-21T00:04:59.128Z,3.00
2017-11-21T00:07:27.470Z,2.43
2017-11-21T00:09:55.709Z,4.70
2017-11-21T00:12:24.791Z,5.80
2017-11-21T00:14:53.101Z,5.10
2017-11-21T00:17:21.356Z,3.13
2017-11-21T00:19:49.595Z,3.10
2017-11-21T00:22:29.732Z,4.27
2017-11-21T00:24:58.753Z,3.73
2017-11-21T00:27:27.030Z,3.20
2017-11-21T00:29:55.295Z,3.43
2017-11-21T00:32:23.534Z,4.80
2017-11-21T00:34:51.812Z,9.80
2017-11-21T00:37:20.074Z,8.07
2017-11-21T00:39:48.380Z,4.80
2017-11-21T00:42:16.627Z,9.30
2017-11-21T00:44:44.855Z,9.63
2017-11-21T00:47:13.120Z,11.17
2017-11-21T00:49:41.348Z,9.90
2017-11-21T00:52:09.602Z,6.80
2017-11-21T00:54:37.881Z,7.03
2017-11-21T00:57:06.136Z,7.13
2017-11-21T00:59:34.405Z,9.93
2017-11-21T01:02:03.412Z,10.60
2017-11-21T01:04:31.653Z,9.43
2017-11-21T01:07:00.674Z,14.03
2017-11-21T01:09:28.943Z,14.17
2017-11-21T01:11:57.949Z,14.20
2017-11-21T01:14:26.188Z,12.63
2017-11-21T01:16:54.432Z,15.83
2017-11-21T01:19:22.669Z,9.87
2017-11-21T01:21:51.674Z,9.90
2017-11-21T01:24:20.711Z,10.67
2017-11-21T01:26:48.957Z,10.53
2017-11-21T01:29:17.985Z,7.73
2017-11-21T01:31:46.224Z,7.20
2017-11-21T01:34:14.467Z,7.80
2017-11-21T01:36:43.533Z,6.30
2017-11-21T01:39:11.775Z,6.70
2017-11-21T01:41:39.995Z,7.63
2017-11-21T01:44:08.254Z,10.57
2017-11-21T01:46:36.531Z,6.10
2017-11-21T01:49:04.800Z,5.87
2017-11-21T01:51:33.023Z,10.20
2017-11-21T01:54:01.268Z,6.17
2017-11-21T01:56:29.502Z,5.13
2017-11-21T01:58:58.522Z,4.70
2017-11-21T02:01:26.775Z,8.77
2017-11-21T02:03:55.028Z,5.17
2017-11-21T02:06:24.060Z,5.70
2017-11-21T02:08:52.290Z,5.43
2017-11-21T02:11:20.547Z,4.20
2017-11-21T02:13:48.818Z,5.13
2017-11-21T02:16:17.051Z,6.13
2017-11-21T02:18:46.077Z,9.30
2017-11-21T02:21:14.803Z,8.73
2017-11-21T02:23:43.124Z,7.03
2017-11-21T02:26:11.422Z,8.00
2017-11-21T02:28:39.676Z,10.83
2017-11-21T02:31:07.949Z,13.70
2017-11-21T02:33:36.275Z,11.50
2017-11-21T02:36:04.577Z,17.50
2017-11-21T02:38:33.623Z,11.27
2017-11-21T02:41:01.892Z,10.00
2017-11-21T02:43:30.164Z,11.60
2017-11-21T02:45:58.413Z,12.07
2017-11-21T02:48:27.452Z,12.90
2017-11-21T02:50:55.725Z,11.77
2017-11-21T02:53:23.979Z,9.67
2017-11-21T02:55:52.251Z,10.10
2017-11-21T02:58:21.132Z,13.40
2017-11-21T03:00:50.165Z,15.90
2017-11-21T03:03:18.450Z,15.30
2017-11-21T03:05:46.704Z,19.70
2017-11-21T03:08:14.980Z,16.00
2017-11-21T03:10:43.240Z,17.33
2017-11-21T03:13:12.243Z,20.07
2017-11-21T03:15:41.269Z,20.47
2017-11-21T03:18:09.503Z,17.50
2017-11-21T03:20:50.386Z,27.70
2017-11-21T03:23:31.271Z,24.43
2017-11-21T03:26:09.433Z,19.10
2017-11-21T03:28:38.652Z,24.87
2017-11-21T03:31:07.678Z,21.57
2017-11-21T03:33:35.985Z,19.80
2017-11-21T03:36:04.232Z,21.37
2017-11-21T03:38:32.495Z,22.00
2017-11-21T03:41:00.791Z,30.47
2017-11-21T03:43:29.040Z,18.90
2017-11-21T03:45:58.097Z,17.30
2017-11-21T03:48:26.349Z,12.90
2017-11-21T03:50:54.608Z,12.30
2017-11-21T03:53:22.867Z,6.77
2017-11-21T03:55:51.911Z,11.03
2017-11-21T03:58:20.708Z,7.43
2017-11-21T04:00:53.812Z,10.53
2017-11-21T04:03:22.080Z,9.33
2017-11-21T04:05:50.339Z,8.40
2017-11-21T04:08:18.592Z,4.60
2017-11-21T04:10:47.586Z,6.70
2017-11-21T04:13:15.852Z,4.10
2017-11-21T04:15:44.119Z,4.30
2017-11-21T04:18:13.729Z,4.87
2017-11-21T04:20:41.958Z,3.53
2017-11-21T04:23:10.206Z,4.27
2017-11-21T04:25:39.251Z,6.10
2017-11-21T04:28:07.534Z,10.07
2017-11-21T04:30:35.782Z,9.33
2017-11-21T04:33:04.071Z,9.53
2017-11-21T04:35:32.301Z,13.00
2017-11-21T04:38:00.591Z,16.13
2017-11-21T04:40:28.860Z,19.57
2017-11-21T04:42:57.875Z,16.97
2017-11-21T04:45:26.152Z,21.00
2017-11-21T04:47:54.403Z,20.43
2017-11-21T04:50:23.439Z,24.17
2017-11-21T04:52:51.719Z,17.30
2017-11-21T04:55:19.979Z,23.70
2017-11-21T04:57:48.269Z,21.13
2017-11-21T05:00:16.542Z,28.40
2017-11-21T05:02:44.840Z,32.13
2017-11-21T05:05:13.127Z,29.70
2017-11-21T05:07:42.151Z,28.00
2017-11-21T05:10:11.172Z,37.10
2017-11-21T05:12:39.452Z,33.13
2017-11-21T05:15:07.690Z,40.70
2017-11-21T05:17:36.735Z,39.23
2017-11-21T05:20:05.017Z,36.03
2017-11-21T05:22:33.268Z,37.73
2017-11-21T05:25:01.573Z,46.20
2017-11-21T05:27:29.847Z,42.97
2017-11-21T05:29:58.093Z,49.20
2017-11-21T05:32:39.044Z,43.83
2017-11-21T05:35:07.313Z,39.77
2017-11-21T05:37:35.561Z,43.50
2017-11-21T05:40:04.755Z,36.33
2017-11-21T05:42:33.073Z,43.33
2017-11-21T05:45:01.337Z,42.30
2017-11-21T05:47:29.646Z,40.33
2017-11-21T05:49:58.726Z,42.10
2017-11-21T05:52:27.800Z,43.10
2017-11-21T05:54:56.063Z,35.90
2017-11-21T05:57:24.320Z,39.17
2017-11-21T05:59:52.635Z,30.77
2017-11-21T06:02:21.684Z,23.73
2017-11-21T06:04:49.971Z,25.93
2017-11-21T06:07:18.243Z,23.50
2017-11-21T06:09:46.561Z,24.60
2017-11-21T06:12:14.812Z,16.17
2017-11-21T06:14:43.087Z,14.10
2017-11-21T06:17:11.372Z,11.40
2017-11-21T06:19:39.695Z,14.90
2017-11-21T06:22:07.980Z,11.43
2017-11-21T06:24:36.221Z,18.70
2017-11-21T06:27:04.464Z,9.17
2017-11-21T06:29:32.769Z,10.10
2017-11-21T06:32:01.015Z,11.93
2017-11-21T06:34:29.274Z,10.67
2017-11-21T06:36:58.292Z,11.07
2017-11-21T06:39:26.543Z,10.73
2017-11-21T06:41:55.611Z,12.93
2017-11-21T06:44:23.875Z,11.00
2017-11-21T06:46:52.141Z,13.60
2017-11-21T06:49:20.383Z,14.63
2017-11-21T06:51:48.643Z,20.93
2017-11-21T06:54:17.015Z,17.73
2017-11-21T06:56:46.068Z,25.20
2017-11-21T06:59:14.326Z,25.23
2017-11-21T07:01:42.596Z,23.30
2017-11-21T07:04:10.890Z,25.70
2017-11-21T07:06:39.188Z,26.63
2017-11-21T07:09:07.511Z,32.00
2017-11-21T07:11:36.134Z,25.80
2017-11-21T07:14:04.371Z,36.90
2017-11-21T07:16:33.400Z,24.80
2017-11-21T07:19:01.641Z,29.60
2017-11-21T07:21:30.688Z,26.83
2017-11-21T07:23:58.983Z,24.60
2017-11-21T07:26:27.256Z,33.23
2017-11-21T07:28:55.514Z,23.90
2017-11-21T07:31:23.762Z,27.23
2017-11-21T07:33:52.771Z,23.03
2017-11-21T07:36:21.068Z,32.40
2017-11-21T07:38:49.314Z,26.80
2017-11-21T07:41:18.326Z,23.17
2017-11-21T07:43:46.589Z,24.03
2017-11-21T07:46:15.666Z,23.83
2017-11-21T07:48:44.043Z,28.50
2017-11-21T07:51:12.312Z,21.47
2017-11-21T07:53:40.569Z,19.40
2017-11-21T07:56:08.820Z,21.30
2017-11-21T07:58:37.085Z,24.33
2017-11-21T08:01:05.344Z,29.07
2017-11-21T08:03:34.385Z,27.60
2017-11-21T08:06:03.446Z,21.70
2017-11-21T08:08:31.775Z,17.50
2017-11-21T08:11:00.027Z,21.00
2017-11-21T08:13:28.665Z,19.13
2017-11-21T08:15:56.947Z,21.73
2017-11-21T08:18:25.994Z,20.90
2017-11-21T08:20:54.258Z,21.90
2017-11-21T08:23:22.683Z,26.00
2017-11-21T08:25:50.935Z,18.90
2017-11-21T08:28:19.180Z,21.87
2017-11-21T08:30:47.449Z,18.90
2017-11-21T08:33:15.733Z,21.90
2017-11-21T08:35:44.773Z,20.47
2017-11-21T08:38:13.052Z,22.57
2017-11-21T08:40:41.340Z,22.60
2017-11-21T08:43:10.416Z,22.20
2017-11-21T08:45:38.694Z,26.27
2017-11-21T08:48:07.002Z,18.60
2017-11-21T08:50:36.047Z,28.17
2017-11-21T08:53:04.332Z,20.70
2017-11-21T08:55:32.571Z,29.63
2017-11-21T08:58:00.835Z,24.07
2017-11-21T09:00:29.139Z,21.30
2017-11-21T09:02:57.395Z,22.77
2017-11-21T09:05:26.443Z,18.87
2017-11-21T09:07:54.750Z,20.77
2017-11-21T09:10:22.995Z,19.57
2017-11-21T09:12:51.234Z,24.60
2017-11-21T09:15:19.500Z,26.03
2017-11-21T09:17:47.762Z,25.87
2017-11-21T19:58:09.063Z,24.10
2017-11-21T20:00:37.737Z,19.83
2017-11-21T20:03:06.923Z,19.30
2017-11-21T20:05:36.899Z,18.10
2017-11-21T20:08:05.339Z,18.07
2017-11-21T20:10:34.092Z,12.10
2017-11-21T20:13:03.367Z,16.23
2017-11-21T20:15:32.601Z,21.20
2017-11-21T20:18:00.881Z,19.10
2017-11-21T20:20:32.143Z,19.43
2017-11-21T20:23:01.998Z,21.10
2017-11-21T20:25:30.331Z,19.07
2017-11-21T20:28:00.144Z,18.43
2017-11-21T20:30:28.731Z,19.33
2017-11-21T20:32:57.824Z,17.37
2017-11-21T20:35:29.774Z,19.10
2017-11-21T20:37:59.260Z,23.93
2017-11-21T20:40:27.733Z,20.87
2017-11-21T20:42:57.779Z,40.97
2017-11-21T20:45:26.154Z,22.30
2017-11-21T20:47:54.627Z,20.87
2017-11-21T20:50:24.207Z,23.47
2017-11-21T20:52:52.481Z,22.17
2017-11-21T20:55:20.787Z,27.80
2017-11-21T20:57:49.208Z,26.03
2017-11-21T21:00:19.018Z,31.80
2017-11-21T21:02:47.687Z,25.93
2017-11-21T21:05:16.889Z,34.77
2017-11-21T21:07:45.239Z,33.50
2017-11-21T21:10:13.606Z,33.20
2017-11-21T21:12:42.876Z,24.73
2017-11-21T21:15:12.009Z,24.33
2017-11-21T21:17:40.632Z,30.73
2017-11-21T21:20:09.518Z,29.53
2017-11-21T21:22:37.887Z,30.90
2017-11-21T21:25:06.165Z,28.10
2017-11-21T21:27:42.311Z,34.67
2017-11-21T21:30:11.435Z,28.43
2017-11-21T21:32:39.764Z,24.73
2017-11-21T21:35:08.083Z,27.97
2017-11-21T21:37:36.375Z,27.80
2017-11-21T21:40:04.841Z,36.67
2017-11-21T21:42:33.711Z,29.50
2017-11-21T21:45:02.021Z,22.17
2017-11-21T21:47:30.269Z,27.53
2017-11-21T21:49:59.056Z,28.00
2017-11-21T21:52:27.704Z,26.23
2017-11-21T21:54:56.733Z,27.60
2017-11-21T21:57:25.071Z,33.97
2017-11-21T21:59:53.286Z,28.03
2017-11-21T22:02:21.572Z,28.33
2017-11-21T22:04:49.855Z,20.67
2017-11-21T22:07:18.143Z,32.57
2017-11-21T22:09:47.206Z,29.33
2017-11-21T22:12:15.817Z,24.40
2017-11-21T22:14:44.110Z,19.40
2017-11-21T22:17:12.996Z,22.07
2017-11-21T22:19:41.952Z,25.00
2017-11-21T22:22:10.197Z,22.93
2017-11-21T22:24:38.502Z,22.93
2017-11-21T22:27:06.766Z,27.53
2017-11-21T22:29:35.063Z,20.70
2017-11-21T22:32:03.306Z,20.87
2017-11-21T22:34:31.567Z,22.77
2017-11-21T22:36:59.859Z,18.50
2017-11-21T22:39:28.449Z,22.70
2017-11-21T22:41:56.733Z,34.80
2017-11-21T22:44:24.991Z,21.07
2017-11-21T22:46:54.020Z,25.97
2017-11-21T22:49:22.342Z,20.63
2017-11-21T22:51:50.596Z,23.23
2017-11-21T22:54:18.876Z,25.03
2017-11-21T22:56:47.171Z,19.77
2017-11-21T22:59:15.401Z,21.93
2017-11-21T23:01:43.873Z,24.23
2017-11-21T23:04:14.008Z,32.43
2017-11-21T23:06:42.272Z,23.80
2017-11-21T23:09:10.554Z,29.10
2017-11-21T23:11:39.560Z,23.80
2017-11-21T23:14:07.876Z,26.20
2017-11-21T23:16:36.143Z,19.93
2017-11-21T23:19:04.404Z,28.43
2017-11-21T23:21:32.742Z,17.37
2017-11-21T23:24:01.019Z,23.70
2017-11-21T23:26:29.260Z,23.13
2017-11-21T23:28:57.594Z,18.83
2017-11-21T23:31:25.912Z,21.77
2017-11-21T23:33:54.200Z,20.27
2017-11-21T23:36:22.459Z,26.50
2017-11-21T23:38:50.693Z,26.00
2017-11-21T23:41:19.718Z,30.13
2017-11-21T23:43:48.725Z,24.70
2017-11-21T23:46:16.980Z,22.73
2017-11-21T23:48:45.261Z,23.73
2017-11-21T23:51:14.284Z,18.17
2017-11-21T23:53:42.541Z,21.83
2017-11-21T23:56:10.762Z,19.10
2017-11-21T23:58:39.007Z,21.30
